Time;durP1;ratioP1;P1;durP2;ratioP2;P2;SDS_P1;SDS_P2;PMS_P1;PMS_P2;Temp;Humidity;BMP_temperature;BMP_pressure;BME280_temperature;BME280_humidity;BME280_pressure;Samples;Min_cycle;Max_cycle;Signal;HPM_P1;HPM_P2
2022/11/16 00:09:25;;;;;;;15.13;8.90;;;8.70;99.90;;;;;;21173177;28;20474;-80
2022/11/16 00:19:27;;;;;;;22.80;10.70;;;8.60;99.90;;;;;;21170958;28;20081;-79
2022/11/16 00:29:28;;;;;;;23.33;12.52;;;8.60;99.90;;;;;;21153047;28;20050;-80
2022/11/16 00:39:28;;;;;;;24.13;11.87;;;8.60;99.90;;;;;;21150977;28;20055;-80
2022/11/16 00:49:29;;;;;;;24.77;12.30;;;8.60;99.90;;;;;;21172519;28;20036;-80
2022/11/16 00:59:30;;;;;;;22.27;11.18;;;8.60;99.90;;;;;;21176213;28;20035;-79
2022/11/16 01:09:32;;;;;;;27.10;13.00;;;8.70;99.90;;;;;;21178531;28;20088;-78
2022/11/16 01:19:33;;;;;;;24.27;13.40;;;8.60;99.90;;;;;;21174106;28;20130;-79
2022/11/16 01:29:34;;;;;;;25.63;12.50;;;8.60;99.90;;;;;;21188217;28;20436;-80
2022/11/16 01:39:36;;;;;;;28.98;13.43;;;8.60;99.90;;;;;;21183574;28;20032;-78
2022/11/16 01:49:43;;;;;;;29.20;14.88;;;8.60;99.90;;;;;;21181798;28;20649;-80
2022/11/16 01:59:47;;;;;;;34.22;13.48;;;8.50;99.90;;;;;;21181238;28;20032;-79
2022/11/16 02:10:19;;;;;;;35.10;13.45;;;8.60;99.90;;;;;;21183936;28;20085;-80
2022/11/16 02:21:02;;;;;;;24.80;12.27;;;8.60;99.90;;;;;;21182797;28;20072;-80
2022/11/16 02:31:06;;;;;;;21.63;11.70;;;8.60;99.90;;;;;;21178158;28;20058;-79
2022/11/16 02:41:17;;;;;;;26.05;13.35;;;8.60;99.90;;;;;;21180380;28;20061;-80
2022/11/16 02:51:19;;;;;;;21.30;13.10;;;8.60;99.90;;;;;;21159890;28;20027;-79
2022/11/16 03:01:39;;;;;;;33.40;16.25;;;8.50;99.90;;;;;;21175108;28;20614;-78
2022/11/16 03:11:59;;;;;;;29.88;15.23;;;8.40;99.90;;;;;;21100302;28;20024;-79
2022/11/16 03:22:15;;;;;;;24.90;12.98;;;8.40;99.90;;;;;;21090666;28;20092;-79
2022/11/16 03:32:52;;;;;;;30.15;13.02;;;8.40;99.90;;;;;;21072450;28;20394;-80
2022/11/16 03:42:59;;;;;;;23.85;12.23;;;8.50;99.90;;;;;;21088462;28;20036;-78
2022/11/16 03:52:59;;;;;;;25.33;11.93;;;8.50;99.90;;;;;;21088814;28;20135;-78
2022/11/16 04:03:01;;;;;;;22.73;11.20;;;8.40;99.90;;;;;;21069382;28;20119;-79
2022/11/16 04:44:03;;;;;;;21.13;9.82;;;8.40;99.90;;;;;;21083480;28;20036;-80
2022/11/16 04:54:04;;;;;;;23.30;10.52;;;8.50;99.90;;;;;;21082584;28;20028;-80
2022/11/16 05:04:05;;;;;;;21.92;9.88;;;8.50;99.90;;;;;;21063115;28;20040;-79
2022/11/16 05:14:08;;;;;;;13.90;7.83;;;8.40;99.90;;;;;;21111874;28;20478;-81
2022/11/16 05:34:29;;;;;;;17.85;8.45;;;8.40;99.90;;;;;;21157236;28;20119;-82
2022/11/16 05:44:30;;;;;;;17.33;7.83;;;8.40;99.90;;;;;;21156222;28;20454;-82
2022/11/16 05:54:32;;;;;;;;;;;8.40;99.90;;;;;;21139895;28;20275;-80
2022/11/16 06:04:33;;;;;;;16.70;8.80;;;8.30;99.90;;;;;;21170986;28;20389;-82
2022/11/16 06:14:34;;;;;;;;;;;8.10;99.90;;;;;;21154593;28;20509;-80
2022/11/16 06:24:35;;;;;;;12.88;7.03;;;7.70;99.90;;;;;;21144179;28;19915;-82
2022/11/16 06:34:37;;;;;;;15.02;7.32;;;7.60;99.90;;;;;;21111628;28;20028;-80
2022/11/16 06:44:37;;;;;;;16.03;8.60;;;7.40;99.90;;;;;;21087389;28;20402;-80
2022/11/16 06:54:40;;;;;;;16.08;7.60;;;7.30;99.90;;;;;;21124352;28;20930;-80
2022/11/16 07:04:41;;;;;;;281.37;17.00;;;7.20;99.90;;;;;;21134520;28;20047;-81
2022/11/16 07:14:44;;;;;;;328.90;20.30;;;7.50;99.90;;;;;;21114562;28;20276;-80
2022/11/16 07:24:48;;;;;;;341.98;22.77;;;7.70;99.90;;;;;;21132810;28;20028;-81
2022/11/16 07:34:48;;;;;;;160.20;18.70;;;7.80;99.90;;;;;;21133360;28;20024;-80
2022/11/16 07:44:51;;;;;;;126.63;15.90;;;7.90;99.90;;;;;;21144483;28;20072;-80
2022/11/16 07:54:52;;;;;;;429.58;25.17;;;8.10;99.90;;;;;;21169017;28;20031;-79
2022/11/16 08:04:57;;;;;;;136.65;16.27;;;8.10;99.90;;;;;;21150003;28;20072;-79
2022/11/16 08:15:01;;;;;;;120.28;13.32;;;8.20;99.90;;;;;;21164423;28;20038;-81
2022/11/16 08:25:03;;;;;;;25.87;11.30;;;8.30;99.90;;;;;;21158677;28;20028;-80
2022/11/16 08:35:04;;;;;;;10.55;6.78;;;10.20;99.90;;;;;;21172387;28;20834;-80
2022/11/16 08:45:05;;;;;;;;;;;11.80;99.90;;;;;;21143017;28;20028;-81
2022/11/16 08:55:07;;;;;;;7.63;3.88;;;12.60;99.90;;;;;;21162014;28;20293;-79
2022/11/16 09:05:10;;;;;;;6.40;3.60;;;12.50;99.90;;;;;;21162579;28;20031;-80
2022/11/16 09:15:11;;;;;;;5.70;3.30;;;12.50;99.90;;;;;;21164172;28;20039;-79
2022/11/16 09:25:12;;;;;;;8.40;3.30;;;12.60;99.90;;;;;;21165136;28;20088;-80
2022/11/16 09:35:13;;;;;;;7.33;2.50;;;13.20;99.90;;;;;;21171309;28;20425;-81
2022/11/16 09:45:45;;;;;;;5.17;1.37;;;14.30;99.90;;;;;;21118733;28;20027;-80
2022/11/16 09:55:49;;;;;;;;;;;15.50;99.90;;;;;;21140390;28;20048;-80
2022/11/16 10:06:06;;;;;;;2.80;1.10;;;15.40;99.90;;;;;;21092467;28;19919;-79
2022/11/16 10:16:19;;;;;;;5.53;1.10;;;14.90;99.90;;;;;;21093977;28;20077;-79
2022/11/16 10:26:38;;;;;;;4.10;1.13;;;15.00;99.90;;;;;;21096234;28;20104;-81
2022/11/16 10:36:39;;;;;;;3.53;0.50;;;15.00;99.90;;;;;;21100826;28;20032;-80
2022/11/16 10:46:56;;;;;;;4.00;0.70;;;16.40;99.90;;;;;;21103984;28;20034;-79
2022/11/16 10:57:15;;;;;;;5.38;1.30;;;15.00;99.90;;;;;;21103864;28;20043;-80
2022/11/16 11:07:29;;;;;;;2.58;0.40;;;16.10;99.90;;;;;;21104541;28;20103;-80
2022/11/16 11:17:32;;;;;;;2.10;0.60;;;15.90;99.90;;;;;;21102486;28;20040;-80
2022/11/16 11:27:34;;;;;;;0.90;0.30;;;16.90;99.90;;;;;;21104383;28;20028;-80
2022/11/16 11:37:38;;;;;;;2.08;0.45;;;17.40;99.90;;;;;;21101022;28;20399;-80
2022/11/16 11:48:01;;;;;;;0.73;0.40;;;16.00;99.90;;;;;;21104508;28;20028;-80
2022/11/16 11:58:04;;;;;;;3.53;0.70;;;14.70;99.90;;;;;;21107408;28;20038;-80
2022/11/16 12:08:30;;;;;;;4.25;1.08;;;14.10;99.90;;;;;;21099553;28;20036;-79
2022/11/16 12:18:56;;;;;;;2.92;0.85;;;14.00;99.90;;;;;;21100034;28;20036;-80
2022/11/16 12:29:27;;;;;;;1.88;0.60;;;15.70;99.90;;;;;;21099512;28;20036;-80
2022/11/16 12:40:15;;;;;;;5.90;0.75;;;16.20;99.90;;;;;;21100127;28;20051;-82
2022/11/16 12:50:51;;;;;;;2.97;0.60;;;17.00;99.90;;;;;;21098879;28;20040;-81
2022/11/16 13:01:28;;;;;;;3.13;0.57;;;18.20;99.90;;;;;;21099121;28;20060;-81
2022/11/16 13:11:43;;;;;;;5.93;1.25;;;16.30;99.90;;;;;;21094095;28;20040;-80
2022/11/16 13:21:48;;;;;;;5.88;0.98;;;16.80;99.90;;;;;;21109658;28;20049;-80
2022/11/16 13:32:14;;;;;;;5.07;0.77;;;17.30;99.90;;;;;;21110991;28;20028;-80
2022/11/16 13:42:15;;;;;;;2.92;0.82;;;17.20;99.90;;;;;;21110296;28;20020;-79
2022/11/16 13:52:16;;;;;;;3.92;0.90;;;15.00;99.90;;;;;;21087800;28;20040;-80
2022/11/16 14:02:41;;;;;;;2.00;0.77;;;15.00;99.90;;;;;;21101307;28;20086;-81
2022/11/16 14:12:53;;;;;;;3.50;0.90;;;16.30;99.90;;;;;;21102261;28;20028;-80
2022/11/16 14:23:18;;;;;;;3.58;1.67;;;17.40;99.90;;;;;;21103703;28;20031;-80
2022/11/16 14:33:32;;;;;;;4.90;1.08;;;17.10;99.90;;;;;;21108313;28;20060;-79
2022/11/16 14:43:40;;;;;;;2.25;0.80;;;17.00;99.90;;;;;;21152765;28;20071;-79
2022/11/16 14:53:47;;;;;;;24.55;10.55;;;17.40;99.90;;;;;;21185221;28;20065;-80
2022/11/16 15:03:52;;;;;;;4.63;1.10;;;16.50;99.90;;;;;;21162085;28;20362;-80
2022/11/16 15:13:53;;;;;;;6.65;1.25;;;14.60;99.90;;;;;;21180591;28;20032;-79
2022/11/16 15:23:55;;;;;;;3.35;1.33;;;13.70;99.90;;;;;;21168646;27;20043;-80
2022/11/16 15:33:56;;;;;;;5.25;1.40;;;12.80;99.90;;;;;;21183172;28;20028;-79
2022/11/16 15:43:59;;;;;;;13.47;6.40;;;11.30;99.90;;;;;;21153622;28;20039;-79
2022/11/16 15:54:20;;;;;;;4.30;1.48;;;10.90;99.90;;;;;;21176661;27;20035;-78
2022/11/16 16:04:21;;;;;;;5.63;2.60;;;11.20;99.90;;;;;;21158662;27;20036;-80
2022/11/16 16:14:27;;;;;;;;;;;10.90;99.90;;;;;;21135510;28;20035;-80
2022/11/16 16:24:37;;;;;;;5.07;0.93;;;10.40;99.90;;;;;;21174370;28;19915;-80
2022/11/16 16:34:38;;;;;;;5.55;1.73;;;9.60;99.90;;;;;;21164078;28;20066;-80
2022/11/16 16:44:39;;;;;;;23.50;10.33;;;9.90;99.90;;;;;;21093841;28;20028;-80
2022/11/16 16:54:40;;;;;;;22.77;9.43;;;9.80;99.90;;;;;;21095096;28;20028;-79
2022/11/16 17:04:42;;;;;;;6.87;2.13;;;9.80;99.90;;;;;;21172720;28;20081;-79
2022/11/16 17:14:50;;;;;;;5.68;2.42;;;8.60;99.90;;;;;;21138190;28;20157;-79
2022/11/16 17:24:50;;;;;;;17.88;7.57;;;8.50;99.90;;;;;;21141832;28;20024;-78
2022/11/16 17:34:51;;;;;;;7.07;4.23;;;8.60;99.90;;;;;;21120411;28;20066;-78
2022/11/16 17:44:53;;;;;;;8.37;4.13;;;8.80;99.90;;;;;;21119794;28;20020;-79
2022/11/16 17:54:54;;;;;;;4.90;2.65;;;8.50;99.90;;;;;;21166215;28;20028;-79
2022/11/16 18:04:55;;;;;;;10.63;5.83;;;8.10;99.90;;;;;;21131331;28;20028;-78
2022/11/16 18:14:56;;;;;;;7.00;3.13;;;8.50;99.90;;;;;;21112475;28;20059;-79
2022/11/16 18:24:57;;;;;;;6.57;3.20;;;8.50;99.90;;;;;;21188105;28;20036;-79
2022/11/16 18:34:58;;;;;;;7.53;4.20;;;8.60;99.90;;;;;;21185238;28;20080;-79
2022/11/16 18:44:58;;;;;;;11.15;2.38;;;8.00;99.90;;;;;;21184354;28;20059;-77
2022/11/16 18:54:59;;;;;;;6.73;2.53;;;7.30;99.90;;;;;;21182466;27;20559;-77
2022/11/16 19:05:00;;;;;;;10.07;2.83;;;7.00;99.90;;;;;;21177175;28;20123;-76
2022/11/16 19:15:01;;;;;;;3.30;2.27;;;6.50;99.90;;;;;;21170710;28;20297;-78
2022/11/16 19:25:03;;;;;;;27.43;9.83;;;6.90;99.90;;;;;;21179582;28;20335;-78
2022/11/16 19:35:04;;;;;;;14.25;4.15;;;7.30;99.90;;;;;;21181592;28;20098;-77
2022/11/16 19:45:05;;;;;;;8.38;4.30;;;6.70;99.90;;;;;;21178823;28;20492;-78
2022/11/16 19:55:06;;;;;;;5.53;3.03;;;6.80;99.90;;;;;;21181544;28;20042;-78
2022/11/16 20:05:07;;;;;;;;;;;6.80;99.90;;;;;;21179275;28;20055;-79
2022/11/16 20:15:08;;;;;;;5.43;2.40;;;7.20;99.90;;;;;;21173762;28;19919;-78
2022/11/16 20:25:10;;;;;;;9.93;5.28;;;7.30;99.90;;;;;;21171989;28;20111;-78
2022/11/16 20:35:11;;;;;;;10.68;5.20;;;7.30;99.90;;;;;;21174285;28;20501;-79
2022/11/16 20:45:12;;;;;;;6.80;4.30;;;7.30;99.90;;;;;;21183453;27;20039;-78
2022/11/16 20:55:12;;;;;;;11.43;4.90;;;7.30;99.90;;;;;;21171447;28;20273;-79
2022/11/16 21:05:13;;;;;;;4.67;2.20;;;7.30;99.90;;;;;;21107127;28;20028;-79
2022/11/16 21:15:14;;;;;;;5.30;2.60;;;7.40;99.90;;;;;;21164626;28;20039;-79
2022/11/16 21:25:15;;;;;;;5.73;3.40;;;7.50;99.90;;;;;;21169130;28;20034;-80
2022/11/16 21:35:16;;;;;;;7.25;3.50;;;7.60;99.90;;;;;;21157544;27;20273;-79
2022/11/16 21:45:17;;;;;;;10.90;3.20;;;7.60;99.90;;;;;;21153153;27;20478;-79
2022/11/16 21:55:18;;;;;;;6.13;2.93;;;7.50;99.90;;;;;;21139817;28;20030;-79
2022/11/16 22:15:39;;;;;;;6.30;3.40;;;7.50;99.90;;;;;;21151390;27;20051;-80
2022/11/16 22:25:39;;;;;;;6.27;3.40;;;7.50;99.90;;;;;;21185628;28;20031;-80
2022/11/16 22:35:40;;;;;;;9.30;3.87;;;7.50;99.90;;;;;;21187363;28;20439;-81
2022/11/16 22:45:41;;;;;;;10.07;5.00;;;7.60;99.90;;;;;;21186276;28;20285;-80
2022/11/16 22:55:43;;;;;;;10.10;5.82;;;7.60;99.90;;;;;;21184377;28;20042;-80
2022/11/16 23:05:44;;;;;;;10.38;5.20;;;7.50;99.90;;;;;;21186077;28;20036;-80
2022/11/16 23:15:47;;;;;;;9.07;5.73;;;7.50;99.90;;;;;;21183127;28;20023;-80
2022/11/16 23:36:08;;;;;;;11.77;4.45;;;7.60;99.90;;;;;;21180181;28;20422;-79
2022/11/16 23:46:09;;;;;;;8.18;4.03;;;7.50;99.90;;;;;;21178248;28;20043;-79
2022/11/16 23:56:10;;;;;;;9.87;6.33;;;7.50;99.90;;;;;;21177178;28;20464;-79
